sensor_id;sensor_type;location;lat;lon;timestamp;temperature;humidity
13572;DHT22;6857;53.484;10.216;2022-08-21T00:01:54;16.40;99.90
13572;DHT22;6857;53.484;10.216;2022-08-21T00:04:20;16.10;99.90
13572;DHT22;6857;53.484;10.216;2022-08-21T00:06:46;15.80;99.90
13572;DHT22;6857;53.484;10.216;2022-08-21T00:09:11;15.40;99.90
13572;DHT22;6857;53.484;10.216;2022-08-21T00:11:39;15.10;99.90
13572;DHT22;6857;53.484;10.216;2022-08-21T00:14:07;15.00;99.90
13572;DHT22;6857;53.484;10.216;2022-08-21T00:16:34;15.10;99.90
13572;DHT22;6857;53.484;10.216;2022-08-21T00:18:59;15.30;99.90
13572;DHT22;6857;53.484;10.216;2022-08-21T00:21:25;15.40;99.90
13572;DHT22;6857;53.484;10.216;2022-08-21T00:23:51;15.50;99.90
13572;DHT22;6857;53.484;10.216;2022-08-21T00:26:17;15.60;99.90
13572;DHT22;6857;53.484;10.216;2022-08-21T00:28:43;15.80;99.90
13572;DHT22;6857;53.484;10.216;2022-08-21T00:31:11;15.70;99.90
13572;DHT22;6857;53.484;10.216;2022-08-21T00:33:36;15.50;99.90
13572;DHT22;6857;53.484;10.216;2022-08-21T00:36:02;15.60;99.90
13572;DHT22;6857;53.484;10.216;2022-08-21T00:38:28;15.60;99.90
13572;DHT22;6857;53.484;10.216;2022-08-21T00:40:58;15.50;99.90
13572;DHT22;6857;53.484;10.216;2022-08-21T00:43:27;15.30;99.90
13572;DHT22;6857;53.484;10.216;2022-08-21T00:45:53;15.00;99.90
13572;DHT22;6857;53.484;10.216;2022-08-21T00:48:19;15.00;99.90
13572;DHT22;6857;53.484;10.216;2022-08-21T00:53:31;15.30;99.90
13572;DHT22;6857;53.484;10.216;2022-08-21T00:55:58;15.20;99.90
13572;DHT22;6857;53.484;10.216;2022-08-21T00:58:26;15.00;99.90
13572;DHT22;6857;53.484;10.216;2022-08-21T01:00:53;14.80;99.90
13572;DHT22;6857;53.484;10.216;2022-08-21T01:03:22;14.70;99.90
13572;DHT22;6857;53.484;10.216;2022-08-21T01:05:48;14.50;99.90
13572;DHT22;6857;53.484;10.216;2022-08-21T01:08:15;14.30;99.90
13572;DHT22;6857;53.484;10.216;2022-08-21T01:10:43;14.30;99.90
13572;DHT22;6857;53.484;10.216;2022-08-21T01:13:11;14.30;99.90
13572;DHT22;6857;53.484;10.216;2022-08-21T01:15:42;14.20;99.90
13572;DHT22;6857;53.484;10.216;2022-08-21T01:18:09;14.10;99.90
13572;DHT22;6857;53.484;10.216;2022-08-21T01:20:37;14.00;99.90
13572;DHT22;6857;53.484;10.216;2022-08-21T01:23:04;14.00;99.90
13572;DHT22;6857;53.484;10.216;2022-08-21T01:25:31;14.00;99.90
13572;DHT22;6857;53.484;10.216;2022-08-21T01:27:57;14.00;99.90
13572;DHT22;6857;53.484;10.216;2022-08-21T01:30:27;13.90;99.90
13572;DHT22;6857;53.484;10.216;2022-08-21T01:32:54;13.80;99.90
13572;DHT22;6857;53.484;10.216;2022-08-21T01:35:21;13.70;99.90
13572;DHT22;6857;53.484;10.216;2022-08-21T01:37:47;13.70;99.90
13572;DHT22;6857;53.484;10.216;2022-08-21T01:40:14;13.70;99.90
13572;DHT22;6857;53.484;10.216;2022-08-21T01:42:44;13.80;99.90
13572;DHT22;6857;53.484;10.216;2022-08-21T01:45:11;13.80;99.90
13572;DHT22;6857;53.484;10.216;2022-08-21T01:47:36;13.90;99.90
13572;DHT22;6857;53.484;10.216;2022-08-21T01:50:05;13.90;99.90
13572;DHT22;6857;53.484;10.216;2022-08-21T01:52:31;14.00;99.90
13572;DHT22;6857;53.484;10.216;2022-08-21T01:54:57;14.10;99.90
13572;DHT22;6857;53.484;10.216;2022-08-21T01:57:23;14.10;99.90
13572;DHT22;6857;53.484;10.216;2022-08-21T01:59:49;14.10;99.90
13572;DHT22;6857;53.484;10.216;2022-08-21T02:02:15;14.10;99.90
13572;DHT22;6857;53.484;10.216;2022-08-21T02:04:40;14.00;99.90
13572;DHT22;6857;53.484;10.216;2022-08-21T02:07:06;14.00;99.90
13572;DHT22;6857;53.484;10.216;2022-08-21T02:09:32;14.00;99.90
13572;DHT22;6857;53.484;10.216;2022-08-21T02:11:59;13.90;99.90
13572;DHT22;6857;53.484;10.216;2022-08-21T02:14:24;13.90;99.90
13572;DHT22;6857;53.484;10.216;2022-08-21T02:16:50;13.80;99.90
13572;DHT22;6857;53.484;10.216;2022-08-21T02:19:17;13.80;99.90
13572;DHT22;6857;53.484;10.216;2022-08-21T02:21:42;13.70;99.90
13572;DHT22;6857;53.484;10.216;2022-08-21T02:24:11;13.70;99.90
13572;DHT22;6857;53.484;10.216;2022-08-21T02:26:36;13.60;99.90
13572;DHT22;6857;53.484;10.216;2022-08-21T02:29:04;13.50;99.90
13572;DHT22;6857;53.484;10.216;2022-08-21T02:31:30;13.50;99.90
13572;DHT22;6857;53.484;10.216;2022-08-21T02:33:56;13.50;99.90
13572;DHT22;6857;53.484;10.216;2022-08-21T02:36:22;13.50;99.90
13572;DHT22;6857;53.484;10.216;2022-08-21T02:38:47;13.70;99.90
13572;DHT22;6857;53.484;10.216;2022-08-21T02:41:18;13.80;99.90
13572;DHT22;6857;53.484;10.216;2022-08-21T02:43:44;13.90;99.90
13572;DHT22;6857;53.484;10.216;2022-08-21T02:46:13;14.10;99.90
13572;DHT22;6857;53.484;10.216;2022-08-21T02:48:39;14.00;99.90
13572;DHT22;6857;53.484;10.216;2022-08-21T02:51:14;14.00;99.90
13572;DHT22;6857;53.484;10.216;2022-08-21T02:53:41;13.80;99.90
13572;DHT22;6857;53.484;10.216;2022-08-21T02:56:09;13.80;99.90
13572;DHT22;6857;53.484;10.216;2022-08-21T02:58:45;13.70;99.90
13572;DHT22;6857;53.484;10.216;2022-08-21T03:01:11;13.60;99.90
13572;DHT22;6857;53.484;10.216;2022-08-21T03:03:38;13.60;99.90
13572;DHT22;6857;53.484;10.216;2022-08-21T03:06:05;13.50;99.90
13572;DHT22;6857;53.484;10.216;2022-08-21T03:08:31;13.50;99.90
13572;DHT22;6857;53.484;10.216;2022-08-21T03:10:57;13.50;99.90
13572;DHT22;6857;53.484;10.216;2022-08-21T03:13:25;13.50;99.90
13572;DHT22;6857;53.484;10.216;2022-08-21T03:15:50;13.50;99.90
13572;DHT22;6857;53.484;10.216;2022-08-21T03:18:16;13.50;99.90
13572;DHT22;6857;53.484;10.216;2022-08-21T03:20:42;13.40;99.90
13572;DHT22;6857;53.484;10.216;2022-08-21T03:23:10;13.40;99.90
13572;DHT22;6857;53.484;10.216;2022-08-21T03:25:37;13.40;99.90
13572;DHT22;6857;53.484;10.216;2022-08-21T03:28:04;13.30;99.90
13572;DHT22;6857;53.484;10.216;2022-08-21T03:30:31;13.30;99.90
13572;DHT22;6857;53.484;10.216;2022-08-21T03:32:58;13.20;99.90
13572;DHT22;6857;53.484;10.216;2022-08-21T03:35:24;13.20;99.90
13572;DHT22;6857;53.484;10.216;2022-08-21T03:37:50;13.30;99.90
13572;DHT22;6857;53.484;10.216;2022-08-21T03:40:18;13.40;99.90
13572;DHT22;6857;53.484;10.216;2022-08-21T03:42:44;13.30;99.90
13572;DHT22;6857;53.484;10.216;2022-08-21T03:45:13;13.30;99.90
13572;DHT22;6857;53.484;10.216;2022-08-21T03:47:38;13.30;99.90
13572;DHT22;6857;53.484;10.216;2022-08-21T03:50:05;13.30;99.90
13572;DHT22;6857;53.484;10.216;2022-08-21T03:52:31;13.40;99.90
13572;DHT22;6857;53.484;10.216;2022-08-21T03:54:56;13.40;99.90
13572;DHT22;6857;53.484;10.216;2022-08-21T03:57:22;13.40;99.90
13572;DHT22;6857;53.484;10.216;2022-08-21T03:59:47;13.30;99.90
13572;DHT22;6857;53.484;10.216;2022-08-21T04:02:17;13.30;99.90
13572;DHT22;6857;53.484;10.216;2022-08-21T04:04:44;13.20;99.90
13572;DHT22;6857;53.484;10.216;2022-08-21T04:07:09;13.20;99.90
13572;DHT22;6857;53.484;10.216;2022-08-21T04:09:35;13.20;99.90
13572;DHT22;6857;53.484;10.216;2022-08-21T04:12:01;13.20;99.90
13572;DHT22;6857;53.484;10.216;2022-08-21T04:14:27;13.20;99.90
13572;DHT22;6857;53.484;10.216;2022-08-21T04:16:52;13.20;99.90
13572;DHT22;6857;53.484;10.216;2022-08-21T04:19:18;13.10;99.90
13572;DHT22;6857;53.484;10.216;2022-08-21T04:21:44;13.10;99.90
13572;DHT22;6857;53.484;10.216;2022-08-21T04:24:10;13.00;99.90
13572;DHT22;6857;53.484;10.216;2022-08-21T04:26:37;13.00;99.90
13572;DHT22;6857;53.484;10.216;2022-08-21T04:29:03;13.00;99.90
13572;DHT22;6857;53.484;10.216;2022-08-21T04:31:32;12.90;99.90
13572;DHT22;6857;53.484;10.216;2022-08-21T04:33:58;13.00;99.90
13572;DHT22;6857;53.484;10.216;2022-08-21T04:36:24;13.00;99.90
13572;DHT22;6857;53.484;10.216;2022-08-21T04:38:50;13.00;99.90
13572;DHT22;6857;53.484;10.216;2022-08-21T04:41:16;13.00;99.90
13572;DHT22;6857;53.484;10.216;2022-08-21T04:43:42;13.10;99.90
13572;DHT22;6857;53.484;10.216;2022-08-21T04:46:08;13.10;99.90
13572;DHT22;6857;53.484;10.216;2022-08-21T04:48:33;13.10;99.90
13572;DHT22;6857;53.484;10.216;2022-08-21T04:51:15;13.20;99.90
13572;DHT22;6857;53.484;10.216;2022-08-21T04:53:47;13.20;99.90
13572;DHT22;6857;53.484;10.216;2022-08-21T04:56:24;13.20;99.90
13572;DHT22;6857;53.484;10.216;2022-08-21T04:58:53;13.20;99.90
13572;DHT22;6857;53.484;10.216;2022-08-21T05:01:22;13.20;99.90
13572;DHT22;6857;53.484;10.216;2022-08-21T05:03:52;13.20;99.90
13572;DHT22;6857;53.484;10.216;2022-08-21T05:06:18;13.30;99.90
13572;DHT22;6857;53.484;10.216;2022-08-21T05:08:45;13.30;99.90
13572;DHT22;6857;53.484;10.216;2022-08-21T05:11:12;13.30;99.90
13572;DHT22;6857;53.484;10.216;2022-08-21T05:13:38;13.40;99.90
13572;DHT22;6857;53.484;10.216;2022-08-21T05:16:06;13.40;99.90
13572;DHT22;6857;53.484;10.216;2022-08-21T05:18:31;13.50;99.90
13572;DHT22;6857;53.484;10.216;2022-08-21T05:20:57;13.60;99.90
13572;DHT22;6857;53.484;10.216;2022-08-21T05:23:22;13.70;99.90
13572;DHT22;6857;53.484;10.216;2022-08-21T05:25:48;13.90;99.90
13572;DHT22;6857;53.484;10.216;2022-08-21T05:28:13;13.90;99.90
13572;DHT22;6857;53.484;10.216;2022-08-21T05:30:39;14.00;99.90
13572;DHT22;6857;53.484;10.216;2022-08-21T05:33:06;14.00;99.90
13572;DHT22;6857;53.484;10.216;2022-08-21T05:35:32;14.00;99.90
13572;DHT22;6857;53.484;10.216;2022-08-21T05:37:59;14.00;99.90
13572;DHT22;6857;53.484;10.216;2022-08-21T05:40:25;14.10;99.90
13572;DHT22;6857;53.484;10.216;2022-08-21T05:42:52;14.20;99.90
13572;DHT22;6857;53.484;10.216;2022-08-21T05:45:18;14.30;99.90
13572;DHT22;6857;53.484;10.216;2022-08-21T05:47:44;14.30;99.90
13572;DHT22;6857;53.484;10.216;2022-08-21T05:50:09;14.40;99.90
13572;DHT22;6857;53.484;10.216;2022-08-21T05:52:35;14.50;99.90
13572;DHT22;6857;53.484;10.216;2022-08-21T05:55:00;14.60;99.90
13572;DHT22;6857;53.484;10.216;2022-08-21T05:57:26;14.60;99.90
13572;DHT22;6857;53.484;10.216;2022-08-21T05:59:52;14.70;99.90
13572;DHT22;6857;53.484;10.216;2022-08-21T06:02:19;14.80;99.90
13572;DHT22;6857;53.484;10.216;2022-08-21T06:04:45;14.90;99.90
13572;DHT22;6857;53.484;10.216;2022-08-21T06:07:10;15.00;99.90
13572;DHT22;6857;53.484;10.216;2022-08-21T06:09:37;15.10;99.90
13572;DHT22;6857;53.484;10.216;2022-08-21T06:12:08;15.20;99.90
13572;DHT22;6857;53.484;10.216;2022-08-21T06:14:34;15.30;99.90
13572;DHT22;6857;53.484;10.216;2022-08-21T06:17:09;15.20;99.90
13572;DHT22;6857;53.484;10.216;2022-08-21T06:19:35;15.30;99.90
13572;DHT22;6857;53.484;10.216;2022-08-21T06:22:01;15.30;99.90
13572;DHT22;6857;53.484;10.216;2022-08-21T06:24:27;15.40;99.90
13572;DHT22;6857;53.484;10.216;2022-08-21T06:26:53;15.50;99.90
13572;DHT22;6857;53.484;10.216;2022-08-21T06:29:20;15.60;99.90
13572;DHT22;6857;53.484;10.216;2022-08-21T06:31:47;15.70;99.90
13572;DHT22;6857;53.484;10.216;2022-08-21T06:34:14;15.70;99.90
13572;DHT22;6857;53.484;10.216;2022-08-21T06:36:39;15.80;99.90
13572;DHT22;6857;53.484;10.216;2022-08-21T06:39:05;15.70;99.90
13572;DHT22;6857;53.484;10.216;2022-08-21T06:41:31;15.70;99.90
13572;DHT22;6857;53.484;10.216;2022-08-21T06:43:57;15.70;99.90
13572;DHT22;6857;53.484;10.216;2022-08-21T06:46:24;15.80;99.90
13572;DHT22;6857;53.484;10.216;2022-08-21T06:48:50;15.80;99.90
13572;DHT22;6857;53.484;10.216;2022-08-21T06:51:16;16.00;99.90
13572;DHT22;6857;53.484;10.216;2022-08-21T06:53:41;16.00;99.90
13572;DHT22;6857;53.484;10.216;2022-08-21T06:56:07;16.00;99.90
13572;DHT22;6857;53.484;10.216;2022-08-21T06:58:33;16.10;99.90
13572;DHT22;6857;53.484;10.216;2022-08-21T07:00:59;16.10;99.90
13572;DHT22;6857;53.484;10.216;2022-08-21T07:03:30;16.30;99.90
13572;DHT22;6857;53.484;10.216;2022-08-21T07:05:56;16.50;99.90
13572;DHT22;6857;53.484;10.216;2022-08-21T07:08:24;16.50;99.90
13572;DHT22;6857;53.484;10.216;2022-08-21T07:10:51;16.60;99.90
13572;DHT22;6857;53.484;10.216;2022-08-21T07:13:18;16.70;99.90
13572;DHT22;6857;53.484;10.216;2022-08-21T07:15:44;16.80;99.90
13572;DHT22;6857;53.484;10.216;2022-08-21T07:18:10;17.10;99.90
13572;DHT22;6857;53.484;10.216;2022-08-21T07:20:37;17.30;99.90
13572;DHT22;6857;53.484;10.216;2022-08-21T07:23:06;17.40;99.90
13572;DHT22;6857;53.484;10.216;2022-08-21T07:25:33;17.50;99.90
13572;DHT22;6857;53.484;10.216;2022-08-21T07:27:58;17.40;99.90
13572;DHT22;6857;53.484;10.216;2022-08-21T07:30:24;17.40;99.90
13572;DHT22;6857;53.484;10.216;2022-08-21T07:32:50;17.40;99.90
13572;DHT22;6857;53.484;10.216;2022-08-21T07:35:17;17.50;99.90
13572;DHT22;6857;53.484;10.216;2022-08-21T07:37:43;17.60;99.90
13572;DHT22;6857;53.484;10.216;2022-08-21T07:40:08;17.70;99.90
13572;DHT22;6857;53.484;10.216;2022-08-21T07:42:34;18.00;99.90
13572;DHT22;6857;53.484;10.216;2022-08-21T07:45:04;18.10;99.90
13572;DHT22;6857;53.484;10.216;2022-08-21T07:47:30;18.20;99.90
13572;DHT22;6857;53.484;10.216;2022-08-21T07:49:56;18.50;99.90
13572;DHT22;6857;53.484;10.216;2022-08-21T07:52:21;18.70;99.90
13572;DHT22;6857;53.484;10.216;2022-08-21T07:54:47;19.00;99.90
13572;DHT22;6857;53.484;10.216;2022-08-21T07:57:12;19.10;99.90
13572;DHT22;6857;53.484;10.216;2022-08-21T07:59:38;19.20;99.90
13572;DHT22;6857;53.484;10.216;2022-08-21T08:02:03;19.30;99.90
13572;DHT22;6857;53.484;10.216;2022-08-21T08:04:29;19.30;99.90
13572;DHT22;6857;53.484;10.216;2022-08-21T08:06:55;19.30;99.90
13572;DHT22;6857;53.484;10.216;2022-08-21T08:09:20;19.50;99.90
13572;DHT22;6857;53.484;10.216;2022-08-21T08:11:46;19.80;99.90
13572;DHT22;6857;53.484;10.216;2022-08-21T08:14:11;20.10;99.90
13572;DHT22;6857;53.484;10.216;2022-08-21T08:16:37;20.30;99.90
13572;DHT22;6857;53.484;10.216;2022-08-21T08:19:03;20.50;99.90
13572;DHT22;6857;53.484;10.216;2022-08-21T08:21:28;20.40;99.90
13572;DHT22;6857;53.484;10.216;2022-08-21T08:23:54;20.40;99.90
13572;DHT22;6857;53.484;10.216;2022-08-21T08:26:20;20.30;99.90
13572;DHT22;6857;53.484;10.216;2022-08-21T08:28:45;20.40;99.90
13572;DHT22;6857;53.484;10.216;2022-08-21T08:31:13;20.30;99.90
13572;DHT22;6857;53.484;10.216;2022-08-21T08:33:39;20.50;99.90
13572;DHT22;6857;53.484;10.216;2022-08-21T08:36:05;20.70;99.90
13572;DHT22;6857;53.484;10.216;2022-08-21T08:38:37;21.00;99.90
13572;DHT22;6857;53.484;10.216;2022-08-21T08:41:18;21.10;99.90
13572;DHT22;6857;53.484;10.216;2022-08-21T08:43:55;21.40;99.90
13572;DHT22;6857;53.484;10.216;2022-08-21T08:46:39;21.60;99.90
13572;DHT22;6857;53.484;10.216;2022-08-21T08:49:19;21.70;99.90
13572;DHT22;6857;53.484;10.216;2022-08-21T08:52:13;21.80;99.90
13572;DHT22;6857;53.484;10.216;2022-08-21T08:54:49;22.00;99.90
13572;DHT22;6857;53.484;10.216;2022-08-21T08:57:19;22.40;99.90
13572;DHT22;6857;53.484;10.216;2022-08-21T08:59:48;22.60;99.90
13572;DHT22;6857;53.484;10.216;2022-08-21T09:02:15;22.60;99.90
13572;DHT22;6857;53.484;10.216;2022-08-21T09:04:44;22.40;99.90
13572;DHT22;6857;53.484;10.216;2022-08-21T09:07:47;22.50;99.90
13572;DHT22;6857;53.484;10.216;2022-08-21T09:12:45;22.40;99.90
13572;DHT22;6857;53.484;10.216;2022-08-21T09:26:02;22.60;99.90
13572;DHT22;6857;53.484;10.216;2022-08-21T09:28:33;22.80;99.90
13572;DHT22;6857;53.484;10.216;2022-08-21T09:30:58;22.90;99.90
13572;DHT22;6857;53.484;10.216;2022-08-21T09:33:28;22.80;99.90
13572;DHT22;6857;53.484;10.216;2022-08-21T09:35:55;22.80;99.90
13572;DHT22;6857;53.484;10.216;2022-08-21T09:38:35;22.80;99.90
13572;DHT22;6857;53.484;10.216;2022-08-21T09:41:05;22.80;99.90
13572;DHT22;6857;53.484;10.216;2022-08-21T09:43:31;23.00;99.90
13572;DHT22;6857;53.484;10.216;2022-08-21T09:46:09;23.10;99.90
13572;DHT22;6857;53.484;10.216;2022-08-21T09:48:55;23.20;99.90
13572;DHT22;6857;53.484;10.216;2022-08-21T09:51:27;23.20;99.90
13572;DHT22;6857;53.484;10.216;2022-08-21T09:54:14;23.10;99.90
13572;DHT22;6857;53.484;10.216;2022-08-21T09:56:56;23.00;99.90
13572;DHT22;6857;53.484;10.216;2022-08-21T09:59:42;23.10;99.90
13572;DHT22;6857;53.484;10.216;2022-08-21T10:05:00;23.60;99.90
13572;DHT22;6857;53.484;10.216;2022-08-21T10:07:29;23.80;99.90
13572;DHT22;6857;53.484;10.216;2022-08-21T10:10:18;23.70;99.90
13572;DHT22;6857;53.484;10.216;2022-08-21T10:15:59;23.60;99.90
13572;DHT22;6857;53.484;10.216;2022-08-21T10:18:50;23.80;99.90
13572;DHT22;6857;53.484;10.216;2022-08-21T10:24:09;24.30;99.90
13572;DHT22;6857;53.484;10.216;2022-08-21T10:27:04;24.50;99.90
13572;DHT22;6857;53.484;10.216;2022-08-21T10:35:14;24.90;99.90
13572;DHT22;6857;53.484;10.216;2022-08-21T10:40:31;24.60;99.90
13572;DHT22;6857;53.484;10.216;2022-08-21T10:46:02;24.90;99.70
13572;DHT22;6857;53.484;10.216;2022-08-21T10:51:18;25.20;99.20
13572;DHT22;6857;53.484;10.216;2022-08-21T10:56:33;25.10;99.40
13572;DHT22;6857;53.484;10.216;2022-08-21T11:04:29;25.00;98.60
13572;DHT22;6857;53.484;10.216;2022-08-21T11:07:20;24.60;99.10
13572;DHT22;6857;53.484;10.216;2022-08-21T11:09:48;24.40;99.30
13572;DHT22;6857;53.484;10.216;2022-08-21T11:15:25;24.10;99.10
13572;DHT22;6857;53.484;10.216;2022-08-21T11:18:24;23.80;99.50
13572;DHT22;6857;53.484;10.216;2022-08-21T11:23:59;23.70;99.20
13572;DHT22;6857;53.484;10.216;2022-08-21T11:29:27;23.90;98.80
13572;DHT22;6857;53.484;10.216;2022-08-21T11:32:31;24.10;97.90
13572;DHT22;6857;53.484;10.216;2022-08-21T11:35:18;24.40;97.20
13572;DHT22;6857;53.484;10.216;2022-08-21T11:40:43;24.50;96.50
13572;DHT22;6857;53.484;10.216;2022-08-21T11:43:45;24.50;97.00
13572;DHT22;6857;53.484;10.216;2022-08-21T11:51:30;24.40;96.60
13572;DHT22;6857;53.484;10.216;2022-08-21T11:56:38;24.60;95.80
13572;DHT22;6857;53.484;10.216;2022-08-21T11:59:13;24.50;95.80
13572;DHT22;6857;53.484;10.216;2022-08-21T12:01:43;24.50;95.90
13572;DHT22;6857;53.484;10.216;2022-08-21T12:04:27;24.50;95.30
13572;DHT22;6857;53.484;10.216;2022-08-21T12:06:54;24.50;95.30
13572;DHT22;6857;53.484;10.216;2022-08-21T12:09:31;24.60;95.30
13572;DHT22;6857;53.484;10.216;2022-08-21T12:14:47;25.40;94.90
13572;DHT22;6857;53.484;10.216;2022-08-21T12:17:23;27.10;92.40
13572;DHT22;6857;53.484;10.216;2022-08-21T12:20:00;28.30;90.90
13572;DHT22;6857;53.484;10.216;2022-08-21T12:22:40;29.20;88.10
13572;DHT22;6857;53.484;10.216;2022-08-21T12:25:11;29.70;85.60
13572;DHT22;6857;53.484;10.216;2022-08-21T12:27:50;30.20;82.10
13572;DHT22;6857;53.484;10.216;2022-08-21T12:30:43;29.60;82.20
13572;DHT22;6857;53.484;10.216;2022-08-21T12:33:29;28.80;84.90
13572;DHT22;6857;53.484;10.216;2022-08-21T12:36:20;27.80;85.70
13572;DHT22;6857;53.484;10.216;2022-08-21T12:38:59;27.10;88.30
13572;DHT22;6857;53.484;10.216;2022-08-21T12:41:37;26.80;88.60
13572;DHT22;6857;53.484;10.216;2022-08-21T12:44:14;27.30;86.70
13572;DHT22;6857;53.484;10.216;2022-08-21T12:46:57;27.60;86.20
13572;DHT22;6857;53.484;10.216;2022-08-21T12:49:31;27.50;85.80
13572;DHT22;6857;53.484;10.216;2022-08-21T12:52:05;27.50;86.60
13572;DHT22;6857;53.484;10.216;2022-08-21T12:54:40;27.80;85.20
13572;DHT22;6857;53.484;10.216;2022-08-21T12:57:07;27.80;83.30
13572;DHT22;6857;53.484;10.216;2022-08-21T12:59:38;27.40;84.80
13572;DHT22;6857;53.484;10.216;2022-08-21T13:02:15;26.90;86.80
13572;DHT22;6857;53.484;10.216;2022-08-21T13:04:42;27.00;86.50
13572;DHT22;6857;53.484;10.216;2022-08-21T13:07:11;27.30;86.30
13572;DHT22;6857;53.484;10.216;2022-08-21T13:12:09;27.90;85.10
13572;DHT22;6857;53.484;10.216;2022-08-21T13:14:38;27.90;84.70
13572;DHT22;6857;53.484;10.216;2022-08-21T13:17:05;27.70;85.50
13572;DHT22;6857;53.484;10.216;2022-08-21T13:19:32;27.20;87.00
13572;DHT22;6857;53.484;10.216;2022-08-21T13:21:59;27.20;87.70
13572;DHT22;6857;53.484;10.216;2022-08-21T13:24:34;27.40;87.30
13572;DHT22;6857;53.484;10.216;2022-08-21T13:27:00;27.80;86.50
13572;DHT22;6857;53.484;10.216;2022-08-21T13:29:31;27.80;85.50
13572;DHT22;6857;53.484;10.216;2022-08-21T13:32:05;28.30;83.40
13572;DHT22;6857;53.484;10.216;2022-08-21T13:34:36;28.40;83.20
13572;DHT22;6857;53.484;10.216;2022-08-21T13:37:05;28.20;82.80
13572;DHT22;6857;53.484;10.216;2022-08-21T13:39:31;27.70;83.40
13572;DHT22;6857;53.484;10.216;2022-08-21T13:42:01;27.00;85.90
13572;DHT22;6857;53.484;10.216;2022-08-21T13:44:32;26.50;87.70
13572;DHT22;6857;53.484;10.216;2022-08-21T13:47:01;26.50;87.60
13572;DHT22;6857;53.484;10.216;2022-08-21T13:49:37;27.10;85.40
13572;DHT22;6857;53.484;10.216;2022-08-21T13:52:12;27.50;84.70
13572;DHT22;6857;53.484;10.216;2022-08-21T13:54:40;28.30;83.10
13572;DHT22;6857;53.484;10.216;2022-08-21T13:57:30;28.80;81.70
13572;DHT22;6857;53.484;10.216;2022-08-21T14:00:17;29.10;81.40
13572;DHT22;6857;53.484;10.216;2022-08-21T14:02:46;28.60;80.70
13572;DHT22;6857;53.484;10.216;2022-08-21T14:05:33;28.00;81.90
13572;DHT22;6857;53.484;10.216;2022-08-21T14:08:18;27.30;83.50
13572;DHT22;6857;53.484;10.216;2022-08-21T14:10:49;27.30;83.80
13572;DHT22;6857;53.484;10.216;2022-08-21T14:16:08;27.70;83.30
13572;DHT22;6857;53.484;10.216;2022-08-21T14:18:44;28.40;80.90
13572;DHT22;6857;53.484;10.216;2022-08-21T14:21:10;28.60;80.20
13572;DHT22;6857;53.484;10.216;2022-08-21T14:23:37;29.20;79.30
13572;DHT22;6857;53.484;10.216;2022-08-21T14:26:05;29.50;78.20
13572;DHT22;6857;53.484;10.216;2022-08-21T14:28:32;28.90;79.30
13572;DHT22;6857;53.484;10.216;2022-08-21T14:31:11;28.40;81.10
13572;DHT22;6857;53.484;10.216;2022-08-21T14:33:37;28.10;81.10
13572;DHT22;6857;53.484;10.216;2022-08-21T14:36:03;27.90;81.60
13572;DHT22;6857;53.484;10.216;2022-08-21T14:38:29;28.30;80.00
13572;DHT22;6857;53.484;10.216;2022-08-21T14:41:03;28.40;79.90
13572;DHT22;6857;53.484;10.216;2022-08-21T14:43:31;28.70;79.30
13572;DHT22;6857;53.484;10.216;2022-08-21T14:45:56;28.90;78.20
13572;DHT22;6857;53.484;10.216;2022-08-21T14:48:22;29.10;76.70
13572;DHT22;6857;53.484;10.216;2022-08-21T14:50:48;29.30;75.90
13572;DHT22;6857;53.484;10.216;2022-08-21T14:53:14;29.30;75.90
13572;DHT22;6857;53.484;10.216;2022-08-21T14:55:40;29.30;75.40
13572;DHT22;6857;53.484;10.216;2022-08-21T14:58:25;29.10;76.60
13572;DHT22;6857;53.484;10.216;2022-08-21T15:00:52;29.10;76.30
13572;DHT22;6857;53.484;10.216;2022-08-21T15:03:19;29.30;76.20
13572;DHT22;6857;53.484;10.216;2022-08-21T15:05:47;29.50;76.30
13572;DHT22;6857;53.484;10.216;2022-08-21T15:08:13;29.60;75.00
13572;DHT22;6857;53.484;10.216;2022-08-21T15:10:38;29.80;74.00
13572;DHT22;6857;53.484;10.216;2022-08-21T15:13:04;29.70;74.30
13572;DHT22;6857;53.484;10.216;2022-08-21T15:15:36;30.00;74.30
13572;DHT22;6857;53.484;10.216;2022-08-21T15:18:03;30.30;73.40
13572;DHT22;6857;53.484;10.216;2022-08-21T15:20:29;30.20;73.50
13572;DHT22;6857;53.484;10.216;2022-08-21T15:22:55;29.90;74.60
13572;DHT22;6857;53.484;10.216;2022-08-21T15:25:20;29.70;74.30
13572;DHT22;6857;53.484;10.216;2022-08-21T15:27:46;29.60;74.20
13572;DHT22;6857;53.484;10.216;2022-08-21T15:30:12;29.40;74.60
13572;DHT22;6857;53.484;10.216;2022-08-21T15:32:38;29.60;74.40
13572;DHT22;6857;53.484;10.216;2022-08-21T15:35:04;30.00;74.00
13572;DHT22;6857;53.484;10.216;2022-08-21T15:37:30;30.20;73.30
13572;DHT22;6857;53.484;10.216;2022-08-21T15:39:55;30.30;72.80
13572;DHT22;6857;53.484;10.216;2022-08-21T15:42:22;30.10;72.40
13572;DHT22;6857;53.484;10.216;2022-08-21T15:44:48;30.00;71.70
13572;DHT22;6857;53.484;10.216;2022-08-21T15:47:24;29.90;73.00
13572;DHT22;6857;53.484;10.216;2022-08-21T15:49:50;29.80;73.60
13572;DHT22;6857;53.484;10.216;2022-08-21T15:52:18;29.30;74.70
13572;DHT22;6857;53.484;10.216;2022-08-21T15:54:44;29.00;75.50
13572;DHT22;6857;53.484;10.216;2022-08-21T15:57:13;29.20;75.40
13572;DHT22;6857;53.484;10.216;2022-08-21T15:59:45;29.40;74.70
13572;DHT22;6857;53.484;10.216;2022-08-21T16:02:16;29.40;74.60
13572;DHT22;6857;53.484;10.216;2022-08-21T16:04:42;29.30;74.30
13572;DHT22;6857;53.484;10.216;2022-08-21T16:07:08;29.00;74.90
13572;DHT22;6857;53.484;10.216;2022-08-21T16:09:34;28.80;76.00
13572;DHT22;6857;53.484;10.216;2022-08-21T16:12:00;28.50;76.60
13572;DHT22;6857;53.484;10.216;2022-08-21T16:14:26;28.00;76.80
13572;DHT22;6857;53.484;10.216;2022-08-21T16:16:53;27.40;77.20
13572;DHT22;6857;53.484;10.216;2022-08-21T16:19:19;26.90;78.50
13572;DHT22;6857;53.484;10.216;2022-08-21T16:21:46;26.50;81.00
13572;DHT22;6857;53.484;10.216;2022-08-21T16:24:12;26.10;82.20
13572;DHT22;6857;53.484;10.216;2022-08-21T16:26:37;25.90;82.50
13572;DHT22;6857;53.484;10.216;2022-08-21T16:29:03;25.70;83.30
13572;DHT22;6857;53.484;10.216;2022-08-21T16:31:30;25.70;84.20
13572;DHT22;6857;53.484;10.216;2022-08-21T16:33:56;25.50;84.20
13572;DHT22;6857;53.484;10.216;2022-08-21T16:36:22;25.40;84.70
13572;DHT22;6857;53.484;10.216;2022-08-21T16:38:51;25.30;85.10
13572;DHT22;6857;53.484;10.216;2022-08-21T16:41:19;25.30;84.50
13572;DHT22;6857;53.484;10.216;2022-08-21T16:43:46;25.30;84.70
13572;DHT22;6857;53.484;10.216;2022-08-21T16:46:14;25.20;85.20
13572;DHT22;6857;53.484;10.216;2022-08-21T16:48:41;25.20;85.70
13572;DHT22;6857;53.484;10.216;2022-08-21T16:51:09;25.20;85.50
13572;DHT22;6857;53.484;10.216;2022-08-21T16:53:34;25.20;85.90
13572;DHT22;6857;53.484;10.216;2022-08-21T16:56:00;25.20;86.40
13572;DHT22;6857;53.484;10.216;2022-08-21T16:58:31;25.20;86.40